Port Washington, New York
Current Conditions -  °F | °C
As of 7:51 AM on Saturday 25 Oct 2014 (Local Time) from KLGA Reporting Station
Few Clouds Few Clouds  
Wind Chill: 52°   Ceiling: Unl
Heat Index: 52°   Visibility: 10mi
Dew Point: 37°   Wind: 7mph
Humidity: 57%   Direction: 270°W
Pressure: 29.86"   Gusts: NA
Location:  40.83°N, 73.7°W
Report Text: KLGA 251151Z 27006KT 10SM FEW250 11/03 A2986 RMK AO2 SLP112 T01110028 10133 20111 51004
Loading
Personal Weather Stations






























Interactive Weather Map
Tropical Storm Tracking
New forecast layout! Learn more

10-Day Weather Forecast

Advertisements
Track Severe Weather on mobile